createdAt,value
2018-12-14T00:01:49.186Z,1.10
2018-12-14T00:04:22.492Z,1.14
2018-12-14T00:06:55.138Z,1.07
2018-12-14T00:09:25.765Z,1.21
2018-12-14T00:11:56.317Z,1.17
2018-12-14T00:14:26.897Z,1.13
2018-12-14T00:16:57.455Z,0.63
2018-12-14T00:19:27.939Z,0.98
2018-12-14T00:21:58.465Z,1.00
2018-12-14T00:24:29.017Z,0.81
2018-12-14T00:27:00.034Z,0.64
2018-12-14T00:29:30.542Z,0.68
2018-12-14T00:32:01.128Z,0.53
2018-12-14T00:34:31.753Z,0.74
2018-12-14T00:37:02.377Z,0.91
2018-12-14T00:39:32.929Z,0.97
2018-12-14T00:42:03.510Z,1.07
2018-12-14T00:44:34.130Z,0.88
2018-12-14T00:47:04.714Z,0.93
2018-12-14T00:49:35.293Z,1.04
2018-12-14T00:52:05.817Z,0.87
2018-12-14T00:54:36.325Z,0.67
2018-12-14T00:57:06.869Z,0.92
2018-12-14T00:59:37.517Z,0.87
2018-12-14T01:02:12.101Z,0.49
2018-12-14T01:04:42.607Z,0.47
2018-12-14T01:07:13.289Z,0.53
2018-12-14T01:09:43.814Z,0.98
2018-12-14T01:12:14.346Z,0.95
2018-12-14T01:14:44.878Z,0.48
2018-12-14T01:17:15.440Z,0.53
2018-12-14T01:19:47.001Z,0.52
2018-12-14T01:22:17.757Z,0.45
2018-12-14T01:24:48.339Z,0.42
2018-12-14T01:27:18.858Z,0.74
2018-12-14T01:29:49.368Z,0.66
2018-12-14T01:32:19.909Z,0.50
2018-12-14T01:34:50.439Z,0.73
2018-12-14T01:37:20.970Z,0.97
2018-12-14T01:39:51.540Z,0.42
2018-12-14T01:42:22.194Z,0.73
2018-12-14T01:44:52.826Z,0.68
2018-12-14T01:47:23.434Z,0.47
2018-12-14T01:49:53.990Z,0.83
2018-12-14T01:52:24.873Z,0.69
2018-12-14T01:54:55.428Z,0.59
2018-12-14T01:57:25.963Z,0.69
2018-12-14T01:59:56.559Z,0.58
2018-12-14T02:02:27.122Z,0.65
2018-12-14T02:04:57.615Z,0.47
2018-12-14T02:07:28.095Z,0.54
2018-12-14T02:09:58.673Z,0.45
2018-12-14T02:12:29.246Z,0.54
2018-12-14T02:14:59.892Z,0.34
2018-12-14T02:17:30.474Z,0.59
2018-12-14T02:20:00.994Z,0.85
2018-12-14T02:22:31.603Z,0.87
2018-12-14T02:25:02.161Z,0.46
2018-12-14T02:27:32.817Z,0.57
2018-12-14T02:30:18.915Z,0.50
2018-12-14T02:32:50.576Z,0.81
2018-12-14T02:35:21.080Z,0.58
2018-12-14T02:37:52.153Z,0.76
2018-12-14T02:40:22.705Z,0.72
2018-12-14T02:42:53.316Z,0.66
2018-12-14T02:45:23.810Z,0.71
2018-12-14T02:47:54.445Z,0.74
2018-12-14T02:50:24.998Z,0.65
2018-12-14T02:52:55.649Z,0.81
2018-12-14T02:55:26.143Z,0.58
2018-12-14T02:57:56.715Z,0.69
2018-12-14T03:00:27.252Z,0.87
2018-12-14T03:02:57.805Z,0.73
2018-12-14T03:05:28.366Z,0.60
2018-12-14T03:07:59.485Z,0.62
2018-12-14T03:10:30.355Z,0.64
2018-12-14T03:13:00.909Z,0.58
2018-12-14T03:15:32.555Z,0.81
2018-12-14T03:18:03.263Z,1.03
2018-12-14T03:20:33.844Z,0.43
2018-12-14T03:23:04.427Z,0.69
2018-12-14T03:25:35.133Z,0.54
2018-12-14T03:28:05.774Z,0.69
2018-12-14T03:30:36.388Z,0.55
2018-12-14T03:33:06.950Z,0.64
2018-12-14T03:35:37.551Z,1.00
2018-12-14T03:38:08.135Z,0.82
2018-12-14T03:40:38.750Z,0.74
2018-12-14T03:43:09.274Z,0.59
2018-12-14T03:45:39.861Z,0.72
2018-12-14T03:48:10.381Z,0.53
2018-12-14T03:50:40.943Z,0.42
2018-12-14T03:53:11.562Z,0.46
2018-12-14T03:55:42.162Z,0.48
2018-12-14T03:58:12.717Z,0.69
2018-12-14T04:00:43.379Z,0.70
2018-12-14T04:03:13.931Z,0.64
2018-12-14T04:05:44.453Z,0.57
2018-12-14T04:08:15.151Z,0.60
2018-12-14T04:10:45.691Z,1.07
2018-12-14T04:13:16.226Z,0.92
2018-12-14T04:15:46.753Z,0.83
2018-12-14T04:18:17.335Z,0.81
2018-12-14T04:20:47.923Z,0.57
2018-12-14T04:23:18.458Z,0.59
2018-12-14T04:25:48.991Z,0.60
2018-12-14T04:28:19.538Z,0.50
2018-12-14T04:30:50.078Z,0.57
2018-12-14T04:33:20.604Z,0.70
2018-12-14T04:35:51.622Z,0.56
2018-12-14T04:38:24.359Z,0.47
2018-12-14T04:40:54.875Z,0.89
2018-12-14T04:43:25.642Z,0.69
2018-12-14T04:45:56.189Z,0.92
2018-12-14T04:48:26.780Z,0.90
2018-12-14T04:50:57.246Z,0.69
2018-12-14T04:53:27.717Z,0.59
2018-12-14T04:55:58.248Z,0.69
2018-12-14T04:58:28.727Z,0.48
2018-12-14T05:00:59.360Z,0.50
2018-12-14T05:03:30.019Z,0.55
2018-12-14T05:06:00.762Z,0.72
2018-12-14T05:08:31.229Z,0.76
2018-12-14T05:11:01.740Z,0.81
2018-12-14T05:13:32.310Z,0.52
2018-12-14T05:16:02.961Z,0.51
2018-12-14T05:18:33.509Z,0.48
2018-12-14T05:21:04.068Z,0.52
2018-12-14T05:23:34.661Z,0.82
2018-12-14T05:26:05.169Z,0.85
2018-12-14T05:28:35.770Z,0.74
2018-12-14T05:31:06.314Z,0.53
2018-12-14T05:33:36.889Z,0.81
2018-12-14T05:36:07.394Z,0.85
2018-12-14T05:38:37.936Z,0.82
2018-12-14T05:41:08.526Z,0.44
2018-12-14T05:43:40.070Z,0.73
2018-12-14T05:46:10.636Z,0.81
2018-12-14T05:48:41.130Z,0.49
2018-12-14T05:51:11.611Z,0.65
2018-12-14T05:53:42.178Z,0.55
2018-12-14T05:56:12.854Z,0.53
2018-12-14T05:58:43.506Z,0.65
2018-12-14T06:01:14.053Z,0.61
2018-12-14T06:03:44.575Z,0.83
2018-12-14T06:06:15.231Z,0.87
2018-12-14T06:08:45.761Z,0.89
2018-12-14T06:11:16.285Z,0.71
2018-12-14T06:13:46.757Z,0.92
2018-12-14T06:16:20.147Z,0.54
2018-12-14T06:18:50.676Z,0.84
2018-12-14T06:21:21.247Z,0.56
2018-12-14T06:23:51.718Z,0.66
2018-12-14T06:26:22.209Z,0.94
2018-12-14T06:28:52.738Z,0.56
2018-12-14T06:31:23.297Z,0.74
2018-12-14T06:33:53.787Z,0.75
2018-12-14T06:36:24.245Z,0.55
2018-12-14T06:38:54.733Z,0.89
2018-12-14T06:41:25.194Z,1.00
2018-12-14T06:43:55.736Z,0.99
2018-12-14T06:46:26.229Z,1.09
2018-12-14T06:48:57.522Z,1.10
2018-12-14T06:51:27.982Z,1.03
2018-12-14T06:53:58.510Z,0.94
2018-12-14T06:56:28.974Z,1.19
2018-12-14T06:58:59.450Z,1.10
2018-12-14T07:01:29.961Z,0.83
2018-12-14T07:04:00.482Z,0.75
2018-12-14T07:06:31.010Z,0.70
2018-12-14T07:09:01.509Z,0.81
2018-12-14T07:11:34.002Z,0.90
2018-12-14T07:14:04.545Z,1.05
2018-12-14T07:16:35.302Z,1.00
2018-12-14T07:19:05.809Z,0.57
2018-12-14T07:21:36.360Z,0.76
2018-12-14T07:24:07.169Z,0.96
2018-12-14T07:26:38.217Z,0.89
2018-12-14T07:29:09.149Z,0.87
2018-12-14T07:31:39.645Z,0.83
2018-12-14T07:34:10.149Z,1.04
2018-12-14T07:36:40.633Z,0.60
2018-12-14T07:39:11.114Z,0.76
2018-12-14T07:41:41.642Z,0.85
2018-12-14T07:44:12.112Z,0.72
2018-12-14T07:46:43.017Z,1.13
2018-12-14T07:49:13.491Z,1.19
2018-12-14T07:51:44.102Z,1.38
2018-12-14T07:54:14.606Z,1.39
2018-12-14T07:56:45.245Z,1.07
2018-12-14T07:59:15.750Z,1.25
2018-12-14T08:01:46.239Z,0.92
2018-12-14T08:04:16.862Z,0.90
2018-12-14T08:06:47.407Z,0.88
2018-12-14T08:09:18.425Z,0.84
2018-12-14T08:11:49.193Z,1.26
2018-12-14T08:14:19.754Z,1.39
2018-12-14T08:16:50.271Z,1.37
2018-12-14T08:19:20.834Z,1.12
2018-12-14T08:21:51.449Z,0.97
2018-12-14T08:24:22.098Z,0.84
2018-12-14T08:26:53.774Z,0.83
2018-12-14T08:29:24.377Z,0.80
2018-12-14T08:31:54.887Z,0.90
2018-12-14T08:34:25.454Z,0.78
2018-12-14T08:36:56.006Z,0.86
2018-12-14T08:39:26.518Z,0.97
2018-12-14T08:41:57.067Z,1.22
2018-12-14T08:44:27.600Z,1.16
2018-12-14T08:46:58.144Z,0.97
2018-12-14T08:49:28.985Z,1.19
2018-12-14T08:51:59.545Z,0.84
2018-12-14T08:54:30.051Z,0.76
2018-12-14T08:57:00.673Z,0.88
2018-12-14T08:59:31.227Z,0.89
2018-12-14T09:02:01.817Z,0.95
2018-12-14T09:04:32.394Z,0.86
2018-12-14T09:07:02.967Z,1.21
2018-12-14T09:09:33.454Z,1.09
2018-12-14T09:12:04.121Z,0.93
2018-12-14T09:17:28.706Z,1.46
2018-12-14T09:19:59.734Z,1.43
2018-12-14T09:22:30.362Z,1.34
2018-12-14T09:25:01.749Z,1.10
2018-12-14T09:27:32.350Z,1.19
2018-12-14T09:30:03.008Z,1.29
2018-12-14T09:32:34.249Z,1.52
2018-12-14T09:35:06.359Z,1.35
2018-12-14T09:37:37.144Z,1.37
2018-12-14T09:40:07.750Z,1.17
2018-12-14T09:42:38.419Z,1.11
2018-12-14T09:45:08.965Z,1.20
2018-12-14T09:47:39.653Z,1.14
2018-12-14T09:50:10.246Z,1.37
2018-12-14T09:52:40.754Z,1.14
2018-12-14T09:55:11.297Z,1.14
2018-12-14T09:57:41.935Z,1.33
2018-12-14T10:00:13.769Z,1.45
2018-12-14T10:02:44.462Z,1.17
2018-12-14T10:05:15.403Z,1.31
2018-12-14T10:07:47.560Z,1.32
2018-12-14T10:10:20.549Z,1.53
2018-12-14T10:12:52.326Z,1.47
2018-12-14T10:15:23.850Z,1.35
2018-12-14T10:17:55.260Z,1.42
2018-12-14T10:20:27.275Z,1.40
2018-12-14T10:22:58.631Z,1.51
2018-12-14T10:25:30.530Z,1.51
2018-12-14T10:28:05.152Z,1.45
2018-12-14T10:30:37.355Z,1.40
2018-12-14T10:33:12.787Z,1.59
2018-12-14T10:35:43.749Z,1.77
2018-12-14T10:38:14.397Z,1.28
2018-12-14T10:40:45.151Z,1.45
2018-12-14T10:43:15.758Z,1.30
2018-12-14T10:45:46.766Z,1.41
2018-12-14T10:48:17.306Z,1.45
2018-12-14T10:50:50.884Z,1.39
2018-12-14T10:53:21.443Z,1.60
2018-12-14T10:55:51.971Z,1.37
2018-12-14T10:58:22.579Z,1.70
2018-12-14T11:00:58.342Z,1.32
2018-12-14T11:03:28.907Z,1.39
2018-12-14T11:06:00.079Z,1.40
2018-12-14T11:08:30.767Z,1.32
2018-12-14T11:11:01.958Z,1.49
2018-12-14T11:13:32.525Z,1.37
2018-12-14T11:16:06.646Z,1.37
2018-12-14T11:18:37.323Z,1.37
2018-12-14T11:21:07.998Z,1.28
2018-12-14T11:23:41.983Z,1.38
2018-12-14T11:26:12.624Z,1.42
2018-12-14T11:28:43.210Z,1.39
2018-12-14T11:31:13.938Z,1.28
2018-12-14T11:33:45.500Z,1.60
2018-12-14T11:36:16.369Z,1.43
2018-12-14T11:38:47.024Z,1.43
2018-12-14T11:41:18.560Z,1.41
2018-12-14T11:43:51.529Z,1.65
2018-12-14T11:46:22.255Z,1.43
2018-12-14T11:48:53.017Z,1.56
2018-12-14T11:51:27.130Z,1.41
2018-12-14T11:53:57.920Z,1.61
2018-12-14T11:56:28.476Z,1.45
2018-12-14T11:58:59.298Z,1.44
2018-12-14T12:01:29.854Z,1.59
2018-12-14T12:04:00.431Z,1.65
2018-12-14T12:06:31.034Z,1.46
2018-12-14T12:09:05.429Z,1.30
2018-12-14T12:11:38.034Z,1.53
2018-12-14T12:14:08.651Z,1.36
2018-12-14T12:16:39.186Z,1.16
2018-12-14T12:19:09.749Z,1.30
2018-12-14T12:21:40.686Z,1.33
2018-12-14T12:24:11.314Z,1.60
2018-12-14T12:26:41.869Z,1.51
2018-12-14T12:29:12.409Z,1.62
2018-12-14T12:31:42.896Z,1.36
2018-12-14T12:34:13.423Z,1.60
2018-12-14T12:36:44.137Z,1.52
2018-12-14T12:39:14.755Z,1.38
2018-12-14T12:41:45.622Z,1.30
2018-12-14T12:44:16.475Z,1.49
2018-12-14T12:46:47.041Z,1.24
2018-12-14T12:49:17.664Z,1.02
2018-12-14T12:51:48.492Z,1.27
2018-12-14T12:54:19.133Z,1.04
2018-12-14T12:56:49.790Z,1.07
2018-12-14T12:59:20.734Z,0.99
2018-12-14T13:01:52.121Z,1.11
2018-12-14T13:04:22.842Z,1.08
2018-12-14T13:06:53.440Z,0.84
2018-12-14T13:09:24.294Z,0.98
2018-12-14T13:11:55.255Z,1.34
2018-12-14T13:14:26.003Z,1.13
2018-12-14T13:16:56.562Z,1.18
2018-12-14T13:19:27.093Z,1.11
2018-12-14T13:21:57.752Z,1.04
2018-12-14T13:24:29.386Z,1.32
2018-12-14T13:27:00.204Z,1.12
2018-12-14T13:29:30.891Z,1.17
2018-12-14T13:32:04.792Z,1.12
2018-12-14T13:34:37.018Z,1.03
2018-12-14T13:37:11.423Z,1.13
2018-12-14T13:39:42.730Z,1.09
2018-12-14T13:42:13.671Z,1.13
2018-12-14T13:44:46.683Z,1.28
2018-12-14T13:47:17.565Z,1.00
2018-12-14T13:49:48.201Z,1.04
2018-12-14T13:52:19.036Z,1.11
2018-12-14T13:54:49.673Z,1.02
2018-12-14T13:57:20.249Z,0.94
2018-12-14T13:59:51.412Z,0.92
2018-12-14T14:02:22.195Z,0.86
2018-12-14T14:04:53.072Z,1.01
2018-12-14T14:07:23.946Z,0.80
2018-12-14T14:09:54.497Z,0.81
2018-12-14T14:12:30.665Z,0.87
2018-12-14T14:14:57.740Z,0.85
2018-12-14T14:17:28.339Z,0.96
2018-12-14T14:19:59.099Z,1.00
2018-12-14T14:22:34.660Z,1.08
2018-12-14T14:25:09.998Z,0.81
2018-12-14T14:27:41.887Z,0.95
2018-12-14T14:32:56.973Z,1.16
2018-12-14T14:35:29.340Z,0.97
2018-12-14T14:38:03.255Z,0.94
2018-12-14T14:40:34.174Z,0.99
2018-12-14T14:43:04.964Z,1.18
2018-12-14T14:45:35.589Z,1.19
2018-12-14T14:48:07.164Z,1.07
2018-12-14T14:50:37.756Z,1.10
2018-12-14T14:53:08.282Z,0.89
2018-12-14T14:55:38.848Z,0.98
2018-12-14T14:58:09.430Z,0.95
2018-12-14T15:00:40.051Z,1.32
2018-12-14T15:03:10.937Z,1.15
2018-12-14T15:05:41.491Z,1.40
2018-12-14T15:08:12.045Z,1.13
2018-12-14T15:10:42.656Z,1.13
2018-12-14T15:13:14.921Z,1.06
2018-12-14T15:15:45.560Z,0.94
2018-12-14T15:18:16.132Z,0.98
2018-12-14T15:20:46.934Z,1.05
2018-12-14T15:23:19.094Z,1.03
2018-12-14T15:25:49.638Z,0.84
2018-12-14T15:28:20.137Z,0.98
2018-12-14T15:30:50.837Z,0.78
2018-12-14T15:33:21.342Z,1.10
2018-12-14T15:35:51.960Z,1.02
2018-12-14T15:38:22.466Z,0.79
2018-12-14T15:40:53.209Z,1.04
2018-12-14T15:43:24.648Z,1.12
2018-12-14T15:45:55.178Z,1.05
2018-12-14T15:48:25.769Z,1.26
2018-12-14T15:50:56.392Z,1.21
2018-12-14T15:53:27.051Z,1.41
2018-12-14T15:55:57.597Z,1.38
2018-12-14T15:58:28.273Z,1.23
2018-12-14T16:00:58.995Z,0.92
2018-12-14T16:03:29.687Z,0.85
2018-12-14T16:06:00.199Z,0.90
2018-12-14T16:08:30.885Z,1.16
2018-12-14T16:11:01.490Z,0.91
2018-12-14T16:13:32.083Z,1.03
2018-12-14T16:16:03.127Z,0.96
2018-12-14T16:18:34.011Z,1.06
2018-12-14T16:21:04.715Z,1.21
2018-12-14T16:23:35.411Z,1.06
2018-12-14T16:26:08.580Z,1.23
2018-12-14T16:28:39.251Z,1.03
2018-12-14T16:31:09.951Z,1.12
2018-12-14T16:33:40.987Z,0.97
2018-12-14T16:36:11.481Z,0.60
2018-12-14T16:38:42.826Z,0.97
2018-12-14T16:41:13.383Z,0.81
2018-12-14T16:43:44.046Z,0.96
2018-12-14T16:46:14.650Z,0.92
2018-12-14T16:48:45.506Z,1.09
2018-12-14T16:51:16.003Z,1.03
2018-12-14T16:53:58.495Z,0.80
2018-12-14T16:56:29.165Z,0.74
2018-12-14T16:58:59.852Z,0.72
2018-12-14T17:01:31.524Z,1.11
2018-12-14T17:04:02.298Z,1.05
2018-12-14T17:06:32.890Z,1.10
2018-12-14T17:09:05.751Z,0.94
2018-12-14T17:11:38.585Z,1.08
2018-12-14T17:14:09.160Z,1.14
2018-12-14T17:16:39.683Z,1.05
2018-12-14T17:19:10.277Z,1.25
2018-12-14T17:21:40.894Z,1.05
2018-12-14T17:24:11.716Z,1.28
2018-12-14T17:26:43.147Z,1.31
2018-12-14T17:29:13.896Z,1.14
2018-12-14T17:31:44.639Z,1.11
2018-12-14T17:34:15.274Z,1.19
2018-12-14T17:36:45.816Z,0.93
2018-12-14T17:39:18.415Z,1.09
2018-12-14T17:41:51.980Z,1.17
2018-12-14T17:44:22.678Z,1.25
2018-12-14T17:46:53.247Z,1.04
2018-12-14T17:49:23.813Z,1.04
2018-12-14T17:51:58.103Z,0.79
2018-12-14T17:54:28.595Z,1.01
2018-12-14T17:56:59.238Z,1.05
2018-12-14T17:59:29.731Z,0.83
2018-12-14T18:02:00.366Z,0.86
2018-12-14T18:04:30.949Z,0.87
2018-12-14T18:07:01.505Z,0.78
2018-12-14T18:09:32.034Z,0.72
2018-12-14T18:12:03.026Z,0.81
2018-12-14T18:14:33.683Z,0.93
2018-12-14T18:17:04.534Z,0.94
2018-12-14T18:19:35.171Z,0.89
2018-12-14T18:22:05.844Z,0.89
2018-12-14T18:24:38.204Z,0.70
2018-12-14T18:27:08.959Z,0.96
2018-12-14T18:29:39.621Z,0.78
2018-12-14T18:32:10.273Z,0.56
2018-12-14T18:34:40.870Z,0.81
2018-12-14T18:37:13.578Z,0.76
2018-12-14T18:39:44.640Z,0.74
2018-12-14T18:42:15.778Z,0.65
2018-12-14T18:44:47.010Z,0.85
2018-12-14T18:47:17.668Z,0.69
2018-12-14T18:49:48.257Z,0.75
2018-12-14T18:52:18.937Z,0.65
2018-12-14T18:54:49.685Z,0.48
2018-12-14T18:57:20.474Z,0.68
2018-12-14T18:59:51.185Z,0.75
2018-12-14T19:02:21.725Z,0.80
2018-12-14T19:04:52.434Z,0.80
2018-12-14T19:07:23.129Z,0.84
2018-12-14T19:09:54.063Z,0.79
2018-12-14T19:12:25.383Z,0.56
2018-12-14T19:14:56.090Z,0.63
2018-12-14T19:17:26.861Z,0.74
2018-12-14T19:19:57.454Z,0.68
2018-12-14T19:22:28.048Z,0.75
2018-12-14T19:24:58.620Z,0.79
2018-12-14T19:27:29.210Z,0.55
2018-12-14T19:29:59.775Z,0.73
2018-12-14T19:32:30.525Z,0.68
2018-12-14T19:35:01.391Z,0.74
2018-12-14T19:37:32.188Z,0.75
2018-12-14T19:40:02.864Z,0.46
2018-12-14T19:42:33.522Z,0.78
2018-12-14T19:45:04.161Z,0.69
2018-12-14T19:47:35.231Z,0.66
2018-12-14T19:50:06.671Z,0.69
2018-12-14T19:52:39.345Z,0.81
2018-12-14T19:55:10.601Z,0.67
2018-12-14T19:57:41.214Z,0.61
2018-12-14T20:00:13.042Z,0.81
2018-12-14T20:02:43.683Z,0.70
2018-12-14T20:05:14.471Z,0.68
2018-12-14T20:07:45.426Z,0.71
2018-12-14T20:10:16.221Z,0.86
2018-12-14T20:12:47.079Z,0.64
2018-12-14T20:15:17.729Z,0.68
2018-12-14T20:17:48.268Z,0.67
2018-12-14T20:20:18.895Z,0.68
2018-12-14T20:22:49.668Z,0.57
2018-12-14T20:25:20.304Z,0.60
2018-12-14T20:27:50.942Z,0.53
2018-12-14T20:30:21.479Z,0.63
2018-12-14T20:32:52.786Z,0.58
2018-12-14T20:35:24.138Z,0.73
2018-12-14T20:37:55.105Z,0.71
2018-12-14T20:40:26.481Z,0.64
2018-12-14T20:42:57.118Z,0.69
2018-12-14T20:45:27.848Z,0.58
2018-12-14T20:47:58.511Z,0.62
2018-12-14T20:50:29.493Z,0.67
2018-12-14T20:53:00.224Z,0.70
2018-12-14T20:55:30.970Z,0.70
2018-12-14T20:58:01.707Z,0.66
2018-12-14T21:00:32.458Z,0.86
2018-12-14T21:03:03.939Z,0.80
2018-12-14T21:05:34.606Z,0.77
2018-12-14T21:08:05.164Z,0.63
2018-12-14T21:10:35.842Z,0.50
2018-12-14T21:13:08.395Z,0.82
2018-12-14T21:15:39.017Z,0.84
2018-12-14T21:18:09.713Z,0.98
2018-12-14T21:20:41.172Z,0.75
2018-12-14T21:23:12.085Z,0.75
2018-12-14T21:25:42.911Z,0.58
2018-12-14T21:28:13.546Z,0.84
2018-12-14T21:30:44.519Z,0.76
2018-12-14T21:33:15.298Z,0.88
2018-12-14T21:35:45.891Z,0.54
2018-12-14T21:38:16.509Z,0.57
2018-12-14T21:40:47.522Z,0.71
2018-12-14T21:43:18.082Z,0.80
2018-12-14T21:45:49.011Z,0.76
2018-12-14T21:48:19.903Z,0.73
2018-12-14T21:50:51.673Z,0.40
2018-12-14T21:53:22.291Z,0.64
2018-12-14T21:55:52.885Z,0.72
2018-12-14T21:58:23.460Z,0.59
2018-12-14T22:00:54.045Z,0.77
2018-12-14T22:03:24.817Z,0.68
2018-12-14T22:05:55.342Z,0.42
2018-12-14T22:08:25.966Z,0.67
2018-12-14T22:10:56.530Z,0.52
2018-12-14T22:13:27.357Z,0.58
2018-12-14T22:15:57.945Z,0.49
2018-12-14T22:18:28.476Z,0.81
2018-12-14T22:21:00.575Z,0.56
2018-12-14T22:23:33.301Z,0.69
2018-12-14T22:26:03.871Z,0.70
2018-12-14T22:28:34.490Z,0.66
2018-12-14T22:31:05.110Z,0.65
2018-12-14T22:33:35.734Z,0.70
2018-12-14T22:36:06.334Z,0.64
2018-12-14T22:38:36.984Z,0.72
2018-12-14T22:41:08.622Z,0.67
2018-12-14T22:43:41.445Z,0.62
2018-12-14T22:46:12.714Z,0.84
2018-12-14T22:48:43.241Z,0.52
2018-12-14T22:51:13.726Z,0.49
2018-12-14T22:53:44.238Z,0.55
2018-12-14T22:56:14.776Z,0.59
2018-12-14T22:58:45.630Z,0.48
2018-12-14T23:01:17.442Z,0.48
2018-12-14T23:03:48.846Z,1.00
2018-12-14T23:06:19.356Z,0.93
2018-12-14T23:08:50.040Z,0.73
2018-12-14T23:11:21.682Z,0.65
2018-12-14T23:13:52.299Z,0.51
2018-12-14T23:16:23.018Z,0.64
2018-12-14T23:18:53.550Z,0.62
2018-12-14T23:21:24.044Z,0.57
2018-12-14T23:23:54.583Z,0.60
2018-12-14T23:26:26.336Z,0.69
2018-12-14T23:28:56.903Z,0.52
2018-12-14T23:31:27.610Z,0.65
2018-12-14T23:33:58.232Z,0.74
2018-12-14T23:36:28.789Z,0.62
2018-12-14T23:38:59.331Z,0.51
2018-12-14T23:41:29.832Z,0.62
2018-12-14T23:44:00.302Z,0.66
2018-12-14T23:46:30.842Z,0.74
2018-12-14T23:49:02.357Z,0.58
2018-12-14T23:51:33.057Z,0.53
2018-12-14T23:54:03.674Z,0.64
2018-12-14T23:56:34.271Z,0.71
2018-12-14T23:59:07.792Z,0.61
